Lambourn, United Kingdom
Current Conditions -  °F | °C
As of 8:26 PM on Monday 24 Nov 2014 (Local Time) from EGVA Reporting Station
Moderate Fog Moderate Fog  
Wind Chill:   Ceiling: 100
Heat Index:   Visibility: 0.25mi
Dew Point:   Wind: 0mph
Humidity: 100%   Direction: NA
Pressure: 30.33"   Gusts: NA
Location:  51.51°N, 1.53°W
Report Text: EGVA 242026Z AUTO 00000KT M0400 R27/0150 FZFG VV001 00/00 A3033 RMK AO2 UPB2016E2026 $
Loading
Personal Weather Stations






























Interactive Weather Map New forecast layout! Learn more

10-Day Weather Forecast

Advertisements
Track Severe Weather on mobile